createdAt,value
2022-11-10T00:00:37.117Z,74.96
2022-11-10T00:01:37.086Z,75.26
2022-11-10T00:02:37.067Z,75.26
2022-11-10T00:03:37.055Z,75.37
2022-11-10T00:04:37.080Z,75.16
2022-11-10T00:05:37.029Z,75.37
2022-11-10T00:06:37.135Z,75.67
2022-11-10T00:07:37.009Z,75.57
2022-11-10T00:08:36.998Z,75.57
2022-11-10T00:09:37.008Z,75.67
2022-11-10T00:10:36.978Z,75.81
2022-11-10T00:11:36.977Z,75.77
2022-11-10T00:12:36.963Z,76.07
2022-11-10T00:13:36.941Z,76.18
2022-11-10T00:14:36.943Z,76.59
2022-11-10T00:15:36.922Z,76.48
2022-11-10T00:16:36.937Z,76.28
2022-11-10T00:17:36.910Z,76.68
2022-11-10T00:18:36.886Z,76.99
2022-11-10T00:19:36.884Z,77.09
2022-11-10T00:20:36.867Z,76.68
2022-11-10T00:21:36.867Z,76.59
2022-11-10T00:22:36.841Z,76.38
2022-11-10T00:23:36.835Z,76.68
2022-11-10T00:24:36.824Z,76.18
2022-11-10T00:25:36.815Z,76.89
2022-11-10T00:26:36.820Z,77.13
2022-11-10T00:27:36.791Z,76.59
2022-11-10T00:28:36.779Z,76.38
2022-11-10T00:29:36.773Z,76.38
2022-11-10T00:30:36.759Z,76.99
2022-11-10T00:31:36.756Z,76.89
2022-11-10T00:32:36.752Z,76.79
2022-11-10T00:33:36.721Z,76.79
2022-11-10T00:34:36.720Z,76.68
2022-11-10T00:35:36.702Z,76.89
2022-11-10T00:36:36.700Z,76.59
2022-11-10T00:37:36.675Z,76.79
2022-11-10T00:38:36.674Z,76.48
2022-11-10T00:39:36.657Z,76.28
2022-11-10T00:40:36.655Z,76.68
2022-11-10T00:41:36.648Z,76.28
2022-11-10T00:42:36.623Z,76.18
2022-11-10T00:43:36.608Z,76.07
2022-11-10T00:44:36.606Z,76.38
2022-11-10T00:45:36.589Z,76.07
2022-11-10T00:46:36.594Z,76.07
2022-11-10T00:47:36.565Z,76.48
2022-11-10T00:48:36.574Z,76.28
2022-11-10T00:49:36.546Z,75.98
2022-11-10T00:50:36.538Z,75.87
2022-11-10T00:51:36.528Z,76.07
2022-11-10T00:52:36.510Z,76.28
2022-11-10T00:53:36.502Z,75.67
2022-11-10T00:54:36.568Z,75.77
2022-11-10T00:55:36.483Z,75.87
2022-11-10T00:56:36.478Z,75.77
2022-11-10T00:57:36.456Z,75.87
2022-11-10T00:58:36.492Z,75.46
2022-11-10T00:59:36.437Z,75.57
2022-11-10T01:00:36.426Z,75.46
2022-11-10T01:01:36.528Z,75.46
2022-11-10T01:02:36.405Z,75.67
2022-11-10T01:03:36.396Z,75.67
2022-11-10T01:04:36.403Z,75.67
2022-11-10T01:05:36.368Z,75.30
2022-11-10T01:06:36.428Z,75.46
2022-11-10T01:07:36.343Z,75.57
2022-11-10T01:08:36.339Z,75.37
2022-11-10T01:09:36.330Z,75.37
2022-11-10T01:10:36.315Z,75.26
2022-11-10T01:11:36.318Z,75.06
2022-11-10T01:12:36.290Z,74.96
2022-11-10T01:13:36.278Z,74.96
2022-11-10T01:14:36.271Z,75.06
2022-11-10T01:15:36.255Z,75.16
2022-11-10T01:16:36.257Z,75.46
2022-11-10T01:17:36.235Z,75.06
2022-11-10T01:18:36.226Z,74.96
2022-11-10T01:19:36.211Z,75.26
2022-11-10T01:20:36.222Z,74.96
2022-11-10T01:21:36.203Z,74.96
2022-11-10T01:22:36.181Z,74.96
2022-11-10T01:23:36.170Z,74.85
2022-11-10T01:24:36.159Z,75.06
2022-11-10T01:25:36.146Z,74.85
2022-11-10T01:26:36.152Z,74.96
2022-11-10T01:27:36.122Z,74.96
2022-11-10T01:28:36.115Z,74.96
2022-11-10T01:29:36.101Z,75.06
2022-11-10T01:30:36.091Z,75.16
2022-11-10T01:31:36.089Z,75.06
2022-11-10T01:33:39.625Z,75.46
2022-11-10T01:34:39.627Z,75.46
2022-11-10T01:35:39.617Z,75.26
2022-11-10T01:36:39.612Z,75.26
2022-11-10T01:37:39.577Z,75.37
2022-11-10T01:38:39.600Z,75.16
2022-11-10T01:39:39.577Z,75.37
2022-11-10T01:40:39.596Z,75.57
2022-11-10T01:41:39.570Z,75.26
2022-11-10T01:42:39.524Z,75.57
2022-11-10T01:43:39.515Z,75.77
2022-11-10T01:44:39.514Z,75.46
2022-11-10T01:45:39.489Z,75.37
2022-11-10T01:46:39.488Z,75.77
2022-11-10T01:47:39.467Z,75.26
2022-11-10T01:48:39.457Z,75.46
2022-11-10T01:49:39.445Z,75.77
2022-11-10T01:50:39.443Z,75.46
2022-11-10T01:51:39.463Z,75.46
2022-11-10T01:52:39.413Z,75.67
2022-11-10T01:53:39.404Z,75.98
2022-11-10T01:54:39.393Z,75.46
2022-11-10T01:55:39.380Z,75.37
2022-11-10T01:56:39.382Z,75.46
2022-11-10T01:57:39.360Z,75.57
2022-11-10T01:58:39.351Z,75.46
2022-11-10T01:59:39.336Z,75.46
2022-11-10T02:00:39.349Z,75.57
2022-11-10T02:01:39.325Z,75.57
2022-11-10T02:02:39.304Z,75.77
2022-11-10T02:03:39.293Z,75.77
2022-11-10T02:04:39.283Z,75.57
2022-11-10T02:05:39.270Z,75.57
2022-11-10T02:06:39.299Z,76.18
2022-11-10T02:07:39.268Z,76.07
2022-11-10T02:08:39.239Z,76.18
2022-11-10T02:09:39.230Z,75.57
2022-11-10T02:10:39.220Z,76.18
2022-11-10T02:11:39.214Z,75.77
2022-11-10T02:12:39.195Z,75.57
2022-11-10T02:13:39.182Z,76.18
2022-11-10T02:14:39.174Z,75.67
2022-11-10T02:15:39.166Z,75.57
2022-11-10T02:16:39.165Z,76.18
2022-11-10T02:17:39.164Z,75.81
2022-11-10T02:18:39.130Z,76.11
2022-11-10T02:19:39.117Z,75.81
2022-11-10T02:20:39.106Z,76.01
2022-11-10T02:21:39.105Z,76.01
2022-11-10T02:22:39.090Z,75.81
2022-11-10T02:23:39.092Z,75.57
2022-11-10T02:24:39.063Z,76.21
2022-11-10T02:25:39.052Z,76.21
2022-11-10T02:26:39.050Z,75.60
2022-11-10T02:27:39.030Z,75.77
2022-11-10T02:28:39.021Z,75.60
2022-11-10T02:29:39.007Z,76.11
2022-11-10T02:30:39.000Z,76.11
2022-11-10T02:31:38.996Z,76.11
2022-11-10T02:32:38.975Z,75.60
2022-11-10T02:33:38.966Z,75.60
2022-11-10T02:34:38.955Z,76.11
2022-11-10T02:35:38.941Z,75.70
2022-11-10T02:36:38.942Z,75.70
2022-11-10T02:37:38.922Z,75.70
2022-11-10T02:38:38.911Z,75.81
2022-11-10T02:39:38.916Z,75.81
2022-11-10T02:40:38.899Z,75.81
2022-11-10T02:41:38.884Z,76.11
2022-11-10T02:42:38.869Z,76.01
2022-11-10T02:43:38.854Z,76.11
2022-11-10T02:44:38.846Z,75.60
2022-11-10T02:45:38.880Z,75.70
2022-11-10T02:46:38.834Z,75.40
2022-11-10T02:47:38.869Z,75.30
2022-11-10T02:48:38.802Z,75.50
2022-11-10T02:49:38.814Z,75.20
2022-11-10T02:50:38.783Z,75.40
2022-11-10T02:51:38.829Z,75.30
2022-11-10T02:52:38.771Z,75.50
2022-11-10T02:53:38.748Z,75.30
2022-11-10T02:54:38.754Z,75.40
2022-11-10T02:55:38.743Z,75.30
2022-11-10T02:56:38.755Z,75.50
2022-11-10T02:57:38.790Z,75.30
2022-11-10T02:58:38.695Z,74.89
2022-11-10T02:59:38.678Z,75.09
2022-11-10T03:00:38.672Z,75.09
2022-11-10T03:01:38.685Z,74.89
2022-11-10T03:02:38.660Z,75.09
2022-11-10T03:03:38.635Z,75.30
2022-11-10T03:04:38.630Z,74.99
2022-11-10T03:05:38.612Z,74.99
2022-11-10T03:06:38.694Z,74.85
2022-11-10T03:07:38.602Z,74.89
2022-11-10T03:08:38.582Z,74.69
2022-11-10T03:09:38.569Z,74.69
2022-11-10T03:10:38.564Z,74.65
2022-11-10T03:11:38.566Z,74.76
2022-11-10T03:12:38.567Z,74.79
2022-11-10T03:13:58.847Z,74.48
2022-11-10T03:14:39.526Z,74.69
2022-11-10T03:15:38.520Z,74.48
2022-11-10T03:16:38.495Z,74.65
2022-11-10T03:17:38.504Z,74.69
2022-11-10T03:18:38.493Z,74.76
2022-11-10T03:19:38.507Z,74.79
2022-11-10T03:20:38.451Z,74.79
2022-11-10T03:21:38.439Z,74.69
2022-11-10T03:22:38.450Z,74.58
2022-11-10T03:23:38.484Z,74.58
2022-11-10T03:24:38.408Z,74.58
2022-11-10T03:25:38.394Z,74.65
2022-11-10T03:26:38.387Z,74.55
2022-11-10T03:27:38.400Z,74.69
2022-11-10T03:28:38.362Z,74.58
2022-11-10T03:29:38.353Z,74.85
2022-11-10T03:30:38.342Z,74.65
2022-11-10T03:31:38.343Z,74.69
2022-11-10T03:32:38.336Z,74.58
2022-11-10T03:33:38.308Z,74.79
2022-11-10T03:34:38.302Z,74.79
2022-11-10T03:35:38.285Z,74.79
2022-11-10T03:36:38.276Z,74.99
2022-11-10T03:37:38.279Z,74.58
2022-11-10T03:38:38.255Z,74.99
2022-11-10T03:39:38.245Z,74.79
2022-11-10T03:41:04.200Z,74.99
2022-11-10T03:41:39.221Z,74.89
2022-11-10T03:42:38.219Z,74.79
2022-11-10T03:43:38.218Z,74.69
2022-11-10T03:44:38.190Z,74.99
2022-11-10T03:45:38.180Z,74.89
2022-11-10T03:46:40.566Z,74.79
2022-11-10T03:47:39.163Z,74.99
2022-11-10T03:48:38.146Z,74.82
2022-11-10T03:49:38.134Z,74.82
2022-11-10T03:50:38.126Z,75.02
2022-11-10T03:51:38.112Z,74.82
2022-11-10T03:52:38.115Z,74.69
2022-11-10T03:53:38.093Z,75.23
2022-11-10T03:54:38.080Z,75.23
2022-11-10T03:55:38.070Z,74.93
2022-11-10T03:56:38.061Z,75.13
2022-11-10T03:57:38.056Z,75.43
2022-11-10T03:58:38.037Z,75.43
2022-11-10T03:59:38.046Z,75.23
2022-11-10T04:00:38.017Z,75.54
2022-11-10T04:01:38.053Z,75.57
2022-11-10T04:02:38.067Z,75.64
2022-11-10T04:03:37.982Z,75.67
2022-11-10T04:04:38.006Z,75.84
2022-11-10T04:05:37.963Z,76.28
2022-11-10T04:06:37.988Z,76.25
2022-11-10T04:07:37.952Z,76.18
2022-11-10T04:08:37.925Z,76.08
2022-11-10T04:09:37.916Z,76.69
2022-11-10T04:10:37.905Z,76.49
2022-11-10T04:11:37.898Z,76.28
2022-11-10T04:12:37.912Z,76.28
2022-11-10T04:13:37.873Z,76.28
2022-11-10T04:14:37.876Z,76.28
2022-11-10T04:15:37.876Z,76.28
2022-11-10T04:16:37.839Z,76.18
2022-11-10T04:17:37.840Z,76.69
2022-11-10T04:18:37.820Z,76.49
2022-11-10T04:19:37.810Z,76.49
2022-11-10T04:20:37.801Z,76.39
2022-11-10T04:21:37.790Z,76.59
2022-11-10T04:22:37.784Z,76.59
2022-11-10T04:23:37.765Z,76.49
2022-11-10T04:24:37.756Z,76.69
2022-11-10T04:25:37.743Z,76.69
2022-11-10T04:26:37.734Z,76.69
2022-11-10T04:27:37.732Z,76.39
2022-11-10T04:28:37.711Z,76.18
2022-11-10T04:29:37.702Z,76.69
2022-11-10T04:30:37.692Z,76.49
2022-11-10T04:31:37.711Z,76.69
2022-11-10T04:32:37.671Z,76.49
2022-11-10T04:33:37.658Z,76.69
2022-11-10T04:34:37.645Z,76.79
2022-11-10T04:35:37.635Z,76.39
2022-11-10T04:36:37.635Z,76.79
2022-11-10T04:37:37.616Z,76.69
2022-11-10T04:38:37.608Z,76.79
2022-11-10T04:39:37.595Z,76.79
2022-11-10T04:40:37.580Z,76.59
2022-11-10T04:41:37.584Z,76.79
2022-11-10T04:42:37.558Z,76.49
2022-11-10T04:43:37.551Z,76.49
2022-11-10T04:44:37.538Z,77.00
2022-11-10T04:45:37.530Z,76.79
2022-11-10T04:46:37.531Z,76.79
2022-11-10T04:47:37.523Z,76.53
2022-11-10T04:48:37.494Z,76.73
2022-11-10T04:49:37.485Z,76.49
2022-11-10T04:50:37.473Z,76.39
2022-11-10T04:51:37.560Z,76.28
2022-11-10T04:52:37.451Z,76.28
2022-11-10T04:53:37.442Z,76.62
2022-11-10T04:54:37.431Z,76.32
2022-11-10T04:55:37.421Z,76.42
2022-11-10T04:56:37.423Z,76.79
2022-11-10T04:57:37.399Z,76.69
2022-11-10T04:58:37.398Z,76.93
2022-11-10T04:59:37.381Z,77.10
2022-11-10T05:00:37.399Z,77.20
2022-11-10T05:01:37.366Z,77.14
2022-11-10T05:02:39.804Z,77.10
2022-11-10T05:03:37.367Z,77.24
2022-11-10T05:04:37.322Z,77.14
2022-11-10T05:05:37.313Z,76.73
2022-11-10T05:06:37.373Z,76.83
2022-11-10T05:07:37.292Z,77.44
2022-11-10T05:08:37.284Z,76.83
2022-11-10T05:09:37.274Z,76.83
2022-11-10T05:10:37.258Z,77.14
2022-11-10T05:11:37.251Z,77.24
2022-11-10T05:12:37.249Z,77.24
2022-11-10T05:13:37.242Z,77.14
2022-11-10T05:14:37.216Z,77.34
2022-11-10T05:15:37.224Z,77.55
2022-11-10T05:16:37.195Z,77.85
2022-11-10T05:17:37.196Z,77.75
2022-11-10T05:18:37.175Z,77.14
2022-11-10T05:19:37.182Z,77.14
2022-11-10T05:20:37.151Z,77.68
2022-11-10T05:21:37.144Z,77.95
2022-11-10T05:22:37.143Z,77.24
2022-11-10T05:23:37.121Z,77.98
2022-11-10T05:24:37.109Z,77.89
2022-11-10T05:25:37.104Z,77.95
2022-11-10T05:26:37.087Z,77.75
2022-11-10T05:27:37.094Z,78.16
2022-11-10T05:28:37.067Z,77.95
2022-11-10T05:29:37.056Z,78.26
2022-11-10T05:30:37.044Z,78.46
2022-11-10T05:31:37.034Z,78.50
2022-11-10T05:32:37.037Z,78.30
2022-11-10T05:33:37.014Z,78.46
2022-11-10T05:34:37.003Z,78.46
2022-11-10T05:35:37.012Z,78.46
2022-11-10T05:36:36.980Z,78.39
2022-11-10T05:37:36.982Z,78.46
2022-11-10T05:38:42.883Z,78.30
2022-11-10T05:39:37.946Z,78.56
2022-11-10T05:40:36.937Z,78.56
2022-11-10T05:41:36.930Z,78.36
2022-11-10T05:42:36.930Z,78.56
2022-11-10T05:43:36.907Z,78.46
2022-11-10T05:44:36.896Z,78.36
2022-11-10T05:45:36.883Z,78.39
2022-11-10T05:46:36.872Z,78.46
2022-11-10T05:47:36.875Z,78.36
2022-11-10T05:48:36.857Z,78.50
2022-11-10T05:49:36.841Z,78.36
2022-11-10T05:50:36.829Z,78.30
2022-11-10T05:51:36.835Z,78.39
2022-11-10T05:52:36.823Z,78.19
2022-11-10T05:53:36.798Z,78.19
2022-11-10T05:54:36.838Z,78.19
2022-11-10T05:55:36.781Z,78.05
2022-11-10T05:56:36.771Z,78.26
2022-11-10T05:57:36.770Z,78.30
2022-11-10T05:58:36.742Z,78.19
2022-11-10T05:59:36.738Z,78.19
2022-11-10T06:00:36.722Z,78.19
2022-11-10T06:01:36.712Z,78.30
2022-11-10T06:02:36.767Z,78.70
2022-11-10T06:03:36.752Z,78.70
2022-11-10T06:04:36.678Z,78.70
2022-11-10T06:05:36.674Z,78.70
2022-11-10T06:06:36.718Z,78.80
2022-11-10T06:07:36.678Z,78.80
2022-11-10T06:08:36.638Z,78.60
2022-11-10T06:09:36.631Z,78.19
2022-11-10T06:10:36.638Z,78.70
2022-11-10T06:11:36.612Z,78.70
2022-11-10T06:12:36.603Z,78.70
2022-11-10T06:13:36.583Z,78.30
2022-11-10T06:14:36.572Z,78.19
2022-11-10T06:15:36.561Z,78.70
2022-11-10T06:16:36.548Z,78.70
2022-11-10T06:17:36.555Z,78.60
2022-11-10T06:18:36.529Z,78.60
2022-11-10T06:19:36.519Z,78.30
2022-11-10T06:20:36.507Z,78.60
2022-11-10T06:21:36.514Z,78.80
2022-11-10T06:22:36.494Z,78.39
2022-11-10T06:23:36.490Z,78.91
2022-11-10T06:24:36.462Z,78.30
2022-11-10T06:25:36.455Z,78.50
2022-11-10T06:26:36.442Z,78.80
2022-11-10T06:27:36.448Z,78.80
2022-11-10T06:28:36.436Z,78.80
2022-11-10T06:29:36.410Z,79.11
2022-11-10T06:30:36.401Z,78.30
2022-11-10T06:31:36.393Z,78.70
2022-11-10T06:32:36.395Z,78.60
2022-11-10T06:33:36.368Z,78.39
2022-11-10T06:34:36.356Z,78.60
2022-11-10T06:35:36.348Z,78.77
2022-11-10T06:36:36.334Z,78.30
2022-11-10T06:37:36.337Z,78.16
2022-11-10T06:38:36.314Z,78.36
2022-11-10T06:39:36.323Z,77.95
2022-11-10T06:40:36.290Z,78.12
2022-11-10T06:41:36.286Z,77.81
2022-11-10T06:42:36.291Z,77.30
2022-11-10T06:43:36.269Z,77.10
2022-11-10T06:44:36.253Z,76.56
2022-11-10T06:45:36.239Z,76.86
2022-11-10T06:46:42.011Z,76.76
2022-11-10T06:47:37.271Z,76.76
2022-11-10T06:48:36.209Z,75.91
2022-11-10T06:49:36.196Z,75.81
2022-11-10T06:50:36.190Z,75.57
2022-11-10T06:51:36.194Z,74.85
2022-11-10T06:52:36.163Z,74.65
2022-11-10T06:53:36.152Z,74.76
2022-11-10T06:54:36.137Z,74.31
2022-11-10T06:55:36.147Z,74.01
2022-11-10T06:56:36.164Z,73.67
2022-11-10T06:57:36.113Z,73.26
2022-11-10T06:58:36.095Z,72.96
2022-11-10T06:59:36.086Z,72.62
2022-11-10T07:00:36.075Z,71.88
2022-11-10T07:01:36.128Z,71.26
2022-11-10T07:02:36.056Z,71.06
2022-11-10T07:03:38.796Z,70.48
2022-11-10T07:04:37.033Z,70.39
2022-11-10T07:05:36.022Z,69.95
2022-11-10T07:06:36.089Z,69.95
2022-11-10T07:07:36.001Z,69.24
2022-11-10T07:08:35.988Z,69.24
2022-11-10T07:09:35.979Z,69.20
2022-11-10T07:10:35.965Z,68.80
2022-11-10T07:11:36.001Z,69.00
2022-11-10T07:12:35.941Z,68.49
2022-11-10T07:13:35.934Z,67.65
2022-11-10T07:14:35.920Z,68.06
2022-11-10T07:15:35.915Z,67.42
2022-11-10T07:16:35.914Z,67.32
2022-11-10T07:17:35.890Z,66.78
2022-11-10T07:18:35.878Z,66.67
2022-11-10T07:19:35.867Z,66.58
2022-11-10T07:20:35.858Z,66.24
2022-11-10T07:21:35.856Z,65.50
2022-11-10T07:22:35.836Z,65.47
2022-11-10T07:23:35.846Z,64.79
2022-11-10T07:24:35.823Z,64.49
2022-11-10T07:25:35.815Z,65.00
2022-11-10T07:26:35.796Z,64.59
2022-11-10T07:27:35.797Z,64.67
2022-11-10T07:28:35.795Z,64.70
2022-11-10T07:29:35.761Z,65.23
2022-11-10T07:30:35.757Z,66.17
2022-11-10T07:31:35.743Z,66.61
2022-11-10T07:32:35.726Z,67.35
2022-11-10T07:33:43.816Z,67.65
2022-11-10T07:34:35.703Z,67.99
2022-11-10T07:35:35.740Z,67.61
2022-11-10T07:36:35.686Z,69.13
2022-11-10T07:37:35.676Z,69.24
2022-11-10T07:38:35.662Z,69.98
2022-11-10T07:39:35.653Z,69.81
2022-11-10T07:40:35.640Z,70.52
2022-11-10T07:41:35.642Z,70.21
2022-11-10T07:42:35.617Z,70.65
2022-11-10T07:43:35.624Z,70.83
2022-11-10T07:44:35.595Z,71.16
2022-11-10T07:45:35.601Z,71.16
2022-11-10T07:46:35.582Z,71.16
2022-11-10T07:47:35.564Z,71.47
2022-11-10T07:48:35.564Z,71.57
2022-11-10T07:49:35.544Z,70.86
2022-11-10T07:50:35.534Z,70.83
2022-11-10T07:51:35.532Z,71.03
2022-11-10T07:52:35.509Z,70.83
2022-11-10T07:53:35.500Z,70.72
2022-11-10T07:54:35.488Z,70.83
2022-11-10T07:55:35.479Z,71.33
2022-11-10T07:56:35.472Z,70.92
2022-11-10T07:57:35.456Z,71.23
2022-11-10T07:58:35.445Z,70.65
2022-11-10T07:59:35.451Z,69.92
2022-11-10T08:00:35.420Z,69.07
2022-11-10T08:01:35.456Z,67.82
2022-11-10T08:02:35.400Z,67.18
2022-11-10T08:03:35.394Z,66.24
2022-11-10T08:04:35.384Z,65.37
2022-11-10T08:05:35.369Z,64.87
2022-11-10T08:06:36.513Z,65.47
2022-11-10T08:07:35.540Z,65.07
2022-11-10T08:08:35.336Z,65.47
2022-11-10T08:09:35.329Z,65.27
2022-11-10T08:10:35.326Z,64.56
2022-11-10T08:11:35.308Z,64.67
2022-11-10T08:12:35.300Z,64.76
2022-11-10T08:13:35.284Z,64.67
2022-11-10T08:14:35.272Z,64.43
2022-11-10T08:15:35.293Z,64.73
2022-11-10T08:16:35.252Z,64.23
2022-11-10T08:17:35.240Z,64.67
2022-11-10T08:18:35.857Z,64.87
2022-11-10T08:19:35.217Z,64.53
2022-11-10T08:20:35.235Z,64.33
2022-11-10T08:21:35.209Z,64.43
2022-11-10T08:22:35.189Z,63.90
2022-11-10T08:23:35.179Z,63.76
2022-11-10T08:24:35.170Z,63.56
2022-11-10T08:25:35.704Z,62.12
2022-11-10T08:26:35.156Z,62.52
2022-11-10T08:27:35.135Z,62.45
2022-11-10T08:28:35.123Z,62.55
2022-11-10T08:29:35.112Z,63.36
2022-11-10T08:30:35.105Z,63.70
2022-11-10T08:31:35.118Z,63.49
2022-11-10T08:32:35.082Z,63.49
2022-11-10T08:33:35.068Z,63.09
2022-11-10T08:34:35.063Z,63.62
2022-11-10T08:35:35.046Z,63.52
2022-11-10T08:36:35.052Z,63.39
2022-11-10T08:37:35.025Z,63.39
2022-11-10T08:38:35.019Z,63.36
2022-11-10T08:39:39.520Z,63.56
2022-11-10T08:40:35.005Z,63.06
2022-11-10T08:41:35.022Z,62.02
2022-11-10T08:42:34.973Z,62.52
2022-11-10T08:43:34.962Z,62.73
2022-11-10T08:44:34.952Z,61.72
2022-11-10T08:45:34.949Z,62.52
2022-11-10T08:46:34.929Z,62.55
2022-11-10T08:47:34.952Z,63.39
2022-11-10T08:48:34.908Z,63.76
2022-11-10T08:49:34.896Z,63.56
2022-11-10T08:50:34.904Z,63.67
2022-11-10T08:51:38.848Z,62.22
2022-11-10T08:52:34.865Z,62.09
2022-11-10T08:53:34.861Z,61.29
2022-11-10T08:54:34.841Z,60.55
2022-11-10T08:55:34.839Z,60.48
2022-11-10T08:56:34.819Z,60.75
2022-11-10T08:57:34.808Z,60.58
2022-11-10T08:58:39.788Z,60.35
2022-11-10T08:59:35.784Z,60.65
2022-11-10T09:00:34.784Z,60.75
2022-11-10T09:01:34.764Z,60.45
2022-11-10T09:02:34.755Z,60.83
2022-11-10T09:03:34.771Z,59.69
2022-11-10T09:04:34.795Z,58.45
2022-11-10T09:05:34.745Z,58.40
2022-11-10T09:06:34.728Z,57.37
2022-11-10T09:07:34.698Z,57.59
2022-11-10T09:08:34.690Z,57.90
2022-11-10T09:09:34.704Z,57.79
2022-11-10T09:10:34.680Z,58.09
2022-11-10T09:11:34.656Z,58.00
2022-11-10T09:12:34.649Z,57.77
2022-11-10T09:13:35.207Z,57.14
2022-11-10T09:14:34.626Z,56.21
2022-11-10T09:15:34.625Z,56.01
2022-11-10T09:16:34.607Z,55.80
2022-11-10T09:17:34.598Z,56.03
2022-11-10T09:18:34.584Z,56.30
2022-11-10T09:19:34.624Z,55.88
2022-11-10T09:20:34.577Z,54.95
2022-11-10T09:21:34.554Z,54.52
2022-11-10T09:22:34.544Z,54.55
2022-11-10T09:23:34.532Z,54.45
2022-11-10T09:24:34.525Z,54.55
2022-11-10T09:25:34.537Z,54.88
2022-11-10T09:26:34.499Z,55.83
2022-11-10T09:27:34.488Z,56.46
2022-11-10T09:28:34.478Z,56.26
2022-11-10T09:29:34.503Z,56.56
2022-11-10T09:30:34.501Z,56.16
2022-11-10T09:31:34.447Z,56.03
2022-11-10T09:32:34.439Z,56.34
2022-11-10T09:33:34.424Z,56.66
2022-11-10T09:34:34.417Z,56.66
2022-11-10T09:35:34.447Z,57.26
2022-11-10T09:36:34.401Z,57.37
2022-11-10T09:37:34.383Z,55.91
2022-11-10T09:38:34.376Z,55.47
2022-11-10T09:39:34.383Z,55.38
2022-11-10T09:40:34.367Z,54.55
2022-11-10T09:41:34.342Z,53.57
2022-11-10T09:42:34.330Z,52.94
2022-11-10T09:43:34.320Z,52.32
2022-11-10T09:44:34.314Z,52.00
2022-11-10T09:45:38.867Z,52.74
2022-11-10T09:46:35.302Z,52.57
2022-11-10T09:47:56.248Z,53.27
2022-11-10T09:48:35.269Z,53.19
2022-11-10T09:49:34.256Z,53.30
2022-11-10T09:50:34.263Z,53.72
2022-11-10T09:51:34.253Z,53.09
2022-11-10T09:52:34.260Z,52.37
2022-11-10T09:53:34.225Z,52.47
2022-11-10T09:54:34.207Z,53.27
2022-11-10T09:55:34.220Z,53.17
2022-11-10T09:56:34.201Z,53.27
2022-11-10T09:57:34.176Z,52.92
2022-11-10T09:58:34.167Z,51.42
2022-11-10T09:59:34.170Z,51.69
2022-11-10T10:00:34.165Z,51.37
2022-11-10T10:01:34.150Z,50.87
2022-11-10T10:02:34.130Z,51.52
2022-11-10T10:03:34.114Z,52.14
2022-11-10T10:04:34.105Z,52.64
2022-11-10T10:05:34.106Z,52.74
2022-11-10T10:06:56.977Z,53.32
2022-11-10T10:07:35.144Z,53.92
2022-11-10T10:08:34.065Z,53.45
2022-11-10T10:09:34.054Z,54.55
2022-11-10T10:10:34.052Z,54.88
2022-11-10T10:11:34.031Z,55.40
2022-11-10T10:12:34.023Z,56.13
2022-11-10T10:13:34.010Z,56.36
2022-11-10T10:14:34.002Z,56.69
2022-11-10T10:15:34.002Z,57.52
2022-11-10T10:16:33.980Z,58.65
2022-11-10T10:17:38.350Z,60.12
2022-11-10T10:18:34.960Z,60.12
2022-11-10T10:19:33.953Z,60.48
2022-11-10T10:20:33.950Z,61.08
2022-11-10T10:21:33.930Z,62.19
2022-11-10T10:22:33.921Z,61.82
2022-11-10T10:23:54.468Z,62.63
2022-11-10T10:24:34.912Z,63.06
2022-11-10T10:25:33.886Z,62.76
2022-11-10T10:26:33.883Z,63.39
2022-11-10T10:27:33.866Z,63.82
2022-11-10T10:28:33.869Z,64.33
2022-11-10T10:29:37.522Z,64.33
2022-11-10T10:30:33.834Z,64.53
2022-11-10T10:31:33.822Z,64.43
2022-11-10T10:32:33.812Z,64.67
2022-11-10T10:33:33.800Z,64.97
2022-11-10T10:34:33.807Z,64.53
2022-11-10T10:35:37.690Z,64.33
2022-11-10T10:36:34.767Z,64.03
2022-11-10T10:37:33.756Z,64.73
2022-11-10T10:38:33.762Z,64.64
2022-11-10T10:39:33.764Z,64.64
2022-11-10T10:40:33.725Z,64.64
2022-11-10T10:41:33.713Z,65.04
2022-11-10T10:42:33.703Z,64.84
2022-11-10T10:43:33.691Z,64.97
2022-11-10T10:44:33.683Z,65.07
2022-11-10T10:45:33.814Z,65.17
2022-11-10T10:46:35.925Z,65.78
2022-11-10T10:47:33.650Z,65.47
2022-11-10T10:48:33.640Z,65.78
2022-11-10T10:49:33.637Z,65.61
2022-11-10T10:50:33.624Z,65.37
2022-11-10T10:51:33.616Z,64.76
2022-11-10T10:52:33.599Z,64.87
2022-11-10T10:53:33.605Z,65.57
2022-11-10T10:54:33.592Z,65.20
2022-11-10T10:55:33.579Z,65.61
2022-11-10T10:56:33.553Z,66.41
2022-11-10T10:57:33.543Z,65.64
2022-11-10T10:58:33.532Z,65.64
2022-11-10T10:59:33.530Z,65.84
2022-11-10T11:00:33.509Z,66.67
2022-11-10T11:01:33.586Z,66.58
2022-11-10T11:02:33.488Z,66.58
2022-11-10T11:03:33.477Z,66.95
2022-11-10T11:04:33.480Z,66.38
2022-11-10T11:05:33.457Z,66.44
2022-11-10T11:06:33.587Z,66.55
2022-11-10T11:07:33.436Z,66.35
2022-11-10T11:08:33.449Z,66.44
2022-11-10T11:09:33.421Z,66.64
2022-11-10T11:10:33.402Z,66.55
2022-11-10T11:11:33.413Z,66.58
2022-11-10T11:12:33.388Z,66.95
2022-11-10T11:13:33.369Z,66.85
2022-11-10T11:14:33.371Z,66.78
2022-11-10T11:15:33.372Z,66.95
2022-11-10T11:16:33.344Z,67.15
2022-11-10T11:17:33.404Z,66.95
2022-11-10T11:18:33.331Z,66.44
2022-11-10T11:19:33.318Z,66.95
2022-11-10T11:20:33.295Z,66.75
2022-11-10T11:21:33.281Z,66.55
2022-11-10T11:22:33.274Z,66.24
2022-11-10T11:23:33.267Z,66.82
2022-11-10T11:24:33.265Z,66.52
2022-11-10T11:25:33.238Z,66.52
2022-11-10T11:26:33.228Z,66.82
2022-11-10T11:27:33.261Z,66.61
2022-11-10T11:28:33.209Z,66.72
2022-11-10T11:29:33.206Z,67.12
2022-11-10T11:30:33.187Z,66.72
2022-11-10T11:31:33.175Z,66.52
2022-11-10T11:32:33.163Z,66.41
2022-11-10T11:33:33.155Z,65.61
2022-11-10T11:34:33.151Z,66.58
2022-11-10T11:35:33.129Z,66.08
2022-11-10T11:36:33.120Z,66.18
2022-11-10T11:37:33.109Z,66.28
2022-11-10T11:38:33.103Z,65.57
2022-11-10T11:39:33.104Z,65.98
2022-11-10T11:40:33.076Z,66.41
2022-11-10T11:41:33.065Z,65.67
2022-11-10T11:42:33.059Z,66.08
2022-11-10T11:43:33.068Z,65.78
2022-11-10T11:44:33.047Z,65.57
2022-11-10T11:45:33.027Z,65.78
2022-11-10T11:46:33.012Z,66.18
2022-11-10T11:47:32.999Z,66.28
2022-11-10T11:48:32.991Z,65.88
2022-11-10T11:49:32.992Z,65.47
2022-11-10T11:50:32.968Z,65.67
2022-11-10T11:51:32.954Z,65.50
2022-11-10T11:52:32.946Z,65.91
2022-11-10T11:53:32.933Z,65.61
2022-11-10T11:54:32.934Z,66.52
2022-11-10T11:55:32.912Z,66.04
2022-11-10T11:56:32.908Z,65.73
2022-11-10T11:57:37.207Z,66.35
2022-11-10T11:58:33.879Z,66.31
2022-11-10T11:59:32.896Z,66.64
2022-11-10T12:00:32.858Z,66.64
2022-11-10T12:01:32.846Z,66.85
2022-11-10T12:02:32.852Z,66.35
2022-11-10T12:03:32.828Z,66.55
2022-11-10T12:04:32.825Z,66.44
2022-11-10T12:05:32.803Z,66.85
2022-11-10T12:06:32.832Z,66.75
2022-11-10T12:07:32.782Z,66.55
2022-11-10T12:08:32.773Z,66.85
2022-11-10T12:09:32.773Z,66.85
2022-11-10T12:10:32.751Z,66.67
2022-11-10T12:11:32.739Z,66.88
2022-11-10T12:12:32.728Z,67.18
2022-11-10T12:13:32.717Z,67.82
2022-11-10T12:14:32.715Z,67.93
2022-11-10T12:15:32.711Z,67.82
2022-11-10T12:16:32.685Z,67.82
2022-11-10T12:17:32.671Z,67.93
2022-11-10T12:18:32.664Z,68.02
2022-11-10T12:19:32.659Z,67.72
2022-11-10T12:20:32.640Z,67.72
2022-11-10T12:21:32.629Z,67.72
2022-11-10T12:22:32.620Z,67.72
2022-11-10T12:23:32.608Z,67.82
2022-11-10T12:24:32.610Z,67.82
2022-11-10T12:25:32.587Z,67.72
2022-11-10T12:26:32.578Z,67.82
2022-11-10T12:27:32.567Z,67.72
2022-11-10T12:28:32.554Z,67.82
2022-11-10T12:29:32.550Z,68.02
2022-11-10T12:30:32.539Z,67.99
2022-11-10T12:31:32.535Z,67.89
2022-11-10T12:32:32.508Z,67.69
2022-11-10T12:33:32.501Z,67.69
2022-11-10T12:34:32.496Z,67.29
2022-11-10T12:35:32.477Z,67.39
2022-11-10T12:36:32.464Z,67.59
2022-11-10T12:37:32.457Z,67.79
2022-11-10T12:38:32.442Z,67.49
2022-11-10T12:39:32.447Z,67.49
2022-11-10T12:40:32.422Z,67.29
2022-11-10T12:41:32.411Z,67.49
2022-11-10T12:42:32.399Z,67.79
2022-11-10T12:43:32.390Z,67.79
2022-11-10T12:44:32.389Z,67.29
2022-11-10T12:45:32.372Z,67.29
2022-11-10T12:46:32.356Z,67.18
2022-11-10T12:47:32.383Z,67.39
2022-11-10T12:48:32.334Z,67.11
2022-11-10T12:49:32.334Z,67.42
2022-11-10T12:50:32.311Z,67.82
2022-11-10T12:51:32.304Z,67.72
2022-11-10T12:52:32.294Z,67.82
2022-11-10T12:53:32.287Z,67.82